VAU weather

Vatukoula Airport
Vatukoula, Western, Fiji

Public forecast

Using degrees Celsius for public forecast. Weather courtesy of forecast.io.

METAR (pilot weather report)

Closest report is Nadi International Airport, 27.5 nm (50.9 km) SW. Retrieved 2019/07/23 18:00 UTC (56 minutes ago):

NFFN 231800Z 06005KT 9999 FEW030 BKN050 20/16 Q1012 NOSIG

TAF (pilot weather forecast)

Closest forecast is Nadi International Airport, 27.5 nm (50.9 km) SW. Retrieved 2019/07/23 18:00 UTC (56 minutes ago):

TAF NFFN 231701Z 2318/2418 10008KT 9999 FEW030 BKN050